sensor_id;sensor_type;location;lat;lon;timestamp;temperature;humidity
44063;DHT22;29727;47.606;19.130;2023-06-22T00:01:58;24.20;79.10
44063;DHT22;29727;47.606;19.130;2023-06-22T00:04:23;24.20;79.00
44063;DHT22;29727;47.606;19.130;2023-06-22T00:06:49;24.20;77.70
44063;DHT22;29727;47.606;19.130;2023-06-22T00:09:15;24.20;78.20
44063;DHT22;29727;47.606;19.130;2023-06-22T00:11:40;24.20;77.80
44063;DHT22;29727;47.606;19.130;2023-06-22T00:14:07;24.20;78.10
44063;DHT22;29727;47.606;19.130;2023-06-22T00:16:33;24.30;77.80
44063;DHT22;29727;47.606;19.130;2023-06-22T00:18:59;24.30;78.30
44063;DHT22;29727;47.606;19.130;2023-06-22T00:21:29;24.30;77.80
44063;DHT22;29727;47.606;19.130;2023-06-22T00:23:55;24.30;78.20
44063;DHT22;29727;47.606;19.130;2023-06-22T00:26:21;24.40;78.20
44063;DHT22;29727;47.606;19.130;2023-06-22T00:28:47;24.40;78.20
44063;DHT22;29727;47.606;19.130;2023-06-22T00:31:13;24.40;78.10
44063;DHT22;29727;47.606;19.130;2023-06-22T00:33:39;24.40;77.30
44063;DHT22;29727;47.606;19.130;2023-06-22T00:36:05;24.40;77.80
44063;DHT22;29727;47.606;19.130;2023-06-22T00:38:33;24.40;77.50
44063;DHT22;29727;47.606;19.130;2023-06-22T00:40:59;24.40;77.60
44063;DHT22;29727;47.606;19.130;2023-06-22T00:43:24;24.40;77.10
44063;DHT22;29727;47.606;19.130;2023-06-22T00:45:50;24.40;77.00
44063;DHT22;29727;47.606;19.130;2023-06-22T00:48:16;24.40;77.10
44063;DHT22;29727;47.606;19.130;2023-06-22T00:50:42;24.40;77.30
44063;DHT22;29727;47.606;19.130;2023-06-22T00:53:09;24.40;77.70
44063;DHT22;29727;47.606;19.130;2023-06-22T00:55:41;24.30;78.00
44063;DHT22;29727;47.606;19.130;2023-06-22T00:58:09;24.30;78.10
44063;DHT22;29727;47.606;19.130;2023-06-22T01:00:36;24.30;78.00
44063;DHT22;29727;47.606;19.130;2023-06-22T01:03:03;24.30;78.10
44063;DHT22;29727;47.606;19.130;2023-06-22T01:05:29;24.30;78.40
44063;DHT22;29727;47.606;19.130;2023-06-22T01:10:50;24.20;78.40
44063;DHT22;29727;47.606;19.130;2023-06-22T01:16:20;24.20;77.80
44063;DHT22;29727;47.606;19.130;2023-06-22T01:18:52;24.20;78.40
44063;DHT22;29727;47.606;19.130;2023-06-22T01:21:20;24.20;77.80
44063;DHT22;29727;47.606;19.130;2023-06-22T01:29:01;24.20;78.30
44063;DHT22;29727;47.606;19.130;2023-06-22T01:31:29;24.20;78.30
44063;DHT22;29727;47.606;19.130;2023-06-22T01:33:59;24.10;78.40
44063;DHT22;29727;47.606;19.130;2023-06-22T01:36:26;24.10;78.50
44063;DHT22;29727;47.606;19.130;2023-06-22T01:38:52;24.10;78.70
44063;DHT22;29727;47.606;19.130;2023-06-22T01:41:20;24.10;78.70
44063;DHT22;29727;47.606;19.130;2023-06-22T01:43:47;24.10;78.80
44063;DHT22;29727;47.606;19.130;2023-06-22T01:46:13;24.10;78.90
44063;DHT22;29727;47.606;19.130;2023-06-22T01:48:40;24.00;78.80
44063;DHT22;29727;47.606;19.130;2023-06-22T01:51:06;24.00;78.90
44063;DHT22;29727;47.606;19.130;2023-06-22T01:53:32;24.00;78.60
44063;DHT22;29727;47.606;19.130;2023-06-22T01:55:58;24.00;78.90
44063;DHT22;29727;47.606;19.130;2023-06-22T01:58:26;24.00;78.80
44063;DHT22;29727;47.606;19.130;2023-06-22T02:01:20;24.00;78.80
44063;DHT22;29727;47.606;19.130;2023-06-22T02:04:13;23.70;78.60
44063;DHT22;29727;47.606;19.130;2023-06-22T02:06:42;23.90;78.40
44063;DHT22;29727;47.606;19.130;2023-06-22T02:09:16;23.90;78.50
44063;DHT22;29727;47.606;19.130;2023-06-22T02:11:45;23.80;78.60
44063;DHT22;29727;47.606;19.130;2023-06-22T02:14:12;23.80;78.30
44063;DHT22;29727;47.606;19.130;2023-06-22T02:16:38;23.80;78.50
44063;DHT22;29727;47.606;19.130;2023-06-22T02:19:04;23.80;79.30
44063;DHT22;29727;47.606;19.130;2023-06-22T02:21:32;23.80;79.40
44063;DHT22;29727;47.606;19.130;2023-06-22T02:23:58;23.80;79.30
44063;DHT22;29727;47.606;19.130;2023-06-22T02:26:25;23.80;79.10
44063;DHT22;29727;47.606;19.130;2023-06-22T02:28:51;23.80;78.40
44063;DHT22;29727;47.606;19.130;2023-06-22T02:31:18;23.80;78.40
44063;DHT22;29727;47.606;19.130;2023-06-22T02:33:43;23.70;78.60
44063;DHT22;29727;47.606;19.130;2023-06-22T02:36:10;23.70;78.90
44063;DHT22;29727;47.606;19.130;2023-06-22T02:38:41;23.70;79.10
44063;DHT22;29727;47.606;19.130;2023-06-22T02:41:16;23.70;79.20
44063;DHT22;29727;47.606;19.130;2023-06-22T02:43:45;23.60;79.20
44063;DHT22;29727;47.606;19.130;2023-06-22T02:46:12;23.60;79.40
44063;DHT22;29727;47.606;19.130;2023-06-22T02:48:39;23.60;79.80
44063;DHT22;29727;47.606;19.130;2023-06-22T02:51:05;23.60;79.90
44063;DHT22;29727;47.606;19.130;2023-06-22T02:53:31;23.60;80.00
44063;DHT22;29727;47.606;19.130;2023-06-22T02:55:57;23.50;80.30
44063;DHT22;29727;47.606;19.130;2023-06-22T02:58:23;23.50;80.30
44063;DHT22;29727;47.606;19.130;2023-06-22T03:00:49;23.50;80.40
44063;DHT22;29727;47.606;19.130;2023-06-22T03:03:18;23.50;81.40
44063;DHT22;29727;47.606;19.130;2023-06-22T03:05:44;23.50;80.70
44063;DHT22;29727;47.606;19.130;2023-06-22T03:08:10;23.50;80.60
44063;DHT22;29727;47.606;19.130;2023-06-22T03:10:36;23.50;80.40
44063;DHT22;29727;47.606;19.130;2023-06-22T03:13:01;23.50;80.50
44063;DHT22;29727;47.606;19.130;2023-06-22T03:15:27;23.50;80.30
44063;DHT22;29727;47.606;19.130;2023-06-22T03:17:55;23.50;80.90
44063;DHT22;29727;47.606;19.130;2023-06-22T03:20:20;23.50;81.00
44063;DHT22;29727;47.606;19.130;2023-06-22T03:22:46;23.50;80.90
44063;DHT22;29727;47.606;19.130;2023-06-22T03:25:14;23.50;81.00
44063;DHT22;29727;47.606;19.130;2023-06-22T03:27:40;23.50;80.50
44063;DHT22;29727;47.606;19.130;2023-06-22T03:30:08;23.50;81.00
44063;DHT22;29727;47.606;19.130;2023-06-22T03:32:34;23.50;80.50
44063;DHT22;29727;47.606;19.130;2023-06-22T03:35:00;23.50;81.00
44063;DHT22;29727;47.606;19.130;2023-06-22T03:37:26;23.50;80.50
44063;DHT22;29727;47.606;19.130;2023-06-22T03:39:53;23.50;80.50
44063;DHT22;29727;47.606;19.130;2023-06-22T03:42:18;23.40;80.70
44063;DHT22;29727;47.606;19.130;2023-06-22T03:44:44;23.40;80.90
44063;DHT22;29727;47.606;19.130;2023-06-22T03:47:10;23.40;81.10
44063;DHT22;29727;47.606;19.130;2023-06-22T03:49:35;23.40;81.40
44063;DHT22;29727;47.606;19.130;2023-06-22T03:52:02;23.40;81.80
44063;DHT22;29727;47.606;19.130;2023-06-22T03:54:29;23.40;82.10
44063;DHT22;29727;47.606;19.130;2023-06-22T03:56:56;23.40;82.20
44063;DHT22;29727;47.606;19.130;2023-06-22T03:59:22;23.40;82.30
44063;DHT22;29727;47.606;19.130;2023-06-22T04:01:48;23.40;82.30
44063;DHT22;29727;47.606;19.130;2023-06-22T04:04:14;23.40;81.60
44063;DHT22;29727;47.606;19.130;2023-06-22T04:06:39;23.40;82.10
44063;DHT22;29727;47.606;19.130;2023-06-22T04:09:08;23.40;82.10
44063;DHT22;29727;47.606;19.130;2023-06-22T04:11:34;23.50;82.40
44063;DHT22;29727;47.606;19.130;2023-06-22T04:14:00;23.50;82.20
44063;DHT22;29727;47.606;19.130;2023-06-22T04:16:26;23.40;81.60
44063;DHT22;29727;47.606;19.130;2023-06-22T04:18:51;23.30;82.60
44063;DHT22;29727;47.606;19.130;2023-06-22T04:21:17;23.20;83.20
44063;DHT22;29727;47.606;19.130;2023-06-22T04:23:45;23.20;84.40
44063;DHT22;29727;47.606;19.130;2023-06-22T04:26:11;23.10;84.30
44063;DHT22;29727;47.606;19.130;2023-06-22T04:28:37;23.00;84.60
44063;DHT22;29727;47.606;19.130;2023-06-22T04:31:03;23.00;85.30
44063;DHT22;29727;47.606;19.130;2023-06-22T04:33:29;23.00;85.40
44063;DHT22;29727;47.606;19.130;2023-06-22T04:35:55;23.10;85.50
44063;DHT22;29727;47.606;19.130;2023-06-22T04:38:24;23.10;84.90
44063;DHT22;29727;47.606;19.130;2023-06-22T04:40:50;23.20;84.70
44063;DHT22;29727;47.606;19.130;2023-06-22T04:43:16;23.20;84.30
44063;DHT22;29727;47.606;19.130;2023-06-22T04:45:42;23.20;84.00
44063;DHT22;29727;47.606;19.130;2023-06-22T04:48:07;23.20;84.70
44063;DHT22;29727;47.606;19.130;2023-06-22T04:50:41;23.10;84.90
44063;DHT22;29727;47.606;19.130;2023-06-22T04:53:07;23.10;85.20
44063;DHT22;29727;47.606;19.130;2023-06-22T04:55:36;23.10;85.60
44063;DHT22;29727;47.606;19.130;2023-06-22T04:58:03;23.10;85.60
44063;DHT22;29727;47.606;19.130;2023-06-22T05:00:31;23.10;85.70
44063;DHT22;29727;47.606;19.130;2023-06-22T05:02:57;23.10;85.30
44063;DHT22;29727;47.606;19.130;2023-06-22T05:05:24;23.20;85.90
44063;DHT22;29727;47.606;19.130;2023-06-22T05:07:52;23.30;85.20
44063;DHT22;29727;47.606;19.130;2023-06-22T05:10:25;23.30;85.50
44063;DHT22;29727;47.606;19.130;2023-06-22T05:12:51;23.40;85.20
44063;DHT22;29727;47.606;19.130;2023-06-22T05:15:17;23.40;84.60
44063;DHT22;29727;47.606;19.130;2023-06-22T05:17:44;23.50;84.90
44063;DHT22;29727;47.606;19.130;2023-06-22T05:20:11;23.60;84.40
44063;DHT22;29727;47.606;19.130;2023-06-22T05:22:37;23.60;84.60
44063;DHT22;29727;47.606;19.130;2023-06-22T05:25:05;23.70;84.30
44063;DHT22;29727;47.606;19.130;2023-06-22T05:27:31;23.70;83.90
44063;DHT22;29727;47.606;19.130;2023-06-22T05:29:57;23.80;83.20
44063;DHT22;29727;47.606;19.130;2023-06-22T05:32:23;23.80;83.40
44063;DHT22;29727;47.606;19.130;2023-06-22T05:34:48;23.90;82.90
44063;DHT22;29727;47.606;19.130;2023-06-22T05:37:14;23.90;82.50
44063;DHT22;29727;47.606;19.130;2023-06-22T05:39:39;24.00;82.30
44063;DHT22;29727;47.606;19.130;2023-06-22T05:42:05;24.00;82.40
44063;DHT22;29727;47.606;19.130;2023-06-22T05:44:32;24.00;82.50
44063;DHT22;29727;47.606;19.130;2023-06-22T05:46:59;24.00;81.90
44063;DHT22;29727;47.606;19.130;2023-06-22T06:17:23;24.80;77.80
44063;DHT22;29727;47.606;19.130;2023-06-22T06:19:48;24.80;78.60
44063;DHT22;29727;47.606;19.130;2023-06-22T06:22:14;24.90;78.30
44063;DHT22;29727;47.606;19.130;2023-06-22T06:24:39;24.90;78.20
44063;DHT22;29727;47.606;19.130;2023-06-22T06:27:05;25.00;77.40
44063;DHT22;29727;47.606;19.130;2023-06-22T06:29:32;25.10;78.10
44063;DHT22;29727;47.606;19.130;2023-06-22T06:31:57;25.20;78.20
44063;DHT22;29727;47.606;19.130;2023-06-22T06:34:23;25.20;77.80
44063;DHT22;29727;47.606;19.130;2023-06-22T06:36:49;25.30;75.90
44063;DHT22;29727;47.606;19.130;2023-06-22T06:39:14;25.40;76.00
44063;DHT22;29727;47.606;19.130;2023-06-22T06:41:41;25.50;75.10
44063;DHT22;29727;47.606;19.130;2023-06-22T06:44:07;25.50;74.10
44063;DHT22;29727;47.606;19.130;2023-06-22T06:46:32;25.60;73.40
44063;DHT22;29727;47.606;19.130;2023-06-22T06:48:58;25.80;73.60
44063;DHT22;29727;47.606;19.130;2023-06-22T06:51:24;25.80;72.60
44063;DHT22;29727;47.606;19.130;2023-06-22T06:53:50;25.90;71.00
44063;DHT22;29727;47.606;19.130;2023-06-22T06:56:16;26.00;70.80
44063;DHT22;29727;47.606;19.130;2023-06-22T06:58:42;26.00;70.80
44063;DHT22;29727;47.606;19.130;2023-06-22T07:01:08;26.10;70.30
44063;DHT22;29727;47.606;19.130;2023-06-22T07:03:34;26.20;70.10
44063;DHT22;29727;47.606;19.130;2023-06-22T07:06:00;26.30;70.60
44063;DHT22;29727;47.606;19.130;2023-06-22T07:08:26;26.40;69.70
44063;DHT22;29727;47.606;19.130;2023-06-22T07:10:54;26.50;69.80
44063;DHT22;29727;47.606;19.130;2023-06-22T07:13:20;26.60;69.10
44063;DHT22;29727;47.606;19.130;2023-06-22T07:15:46;26.70;69.10
44063;DHT22;29727;47.606;19.130;2023-06-22T07:18:12;26.80;68.40
44063;DHT22;29727;47.606;19.130;2023-06-22T07:20:37;26.80;67.10
44063;DHT22;29727;47.606;19.130;2023-06-22T07:23:05;26.90;67.60
44063;DHT22;29727;47.606;19.130;2023-06-22T07:25:30;27.00;66.50
44063;DHT22;29727;47.606;19.130;2023-06-22T07:27:59;27.10;64.00
44063;DHT22;29727;47.606;19.130;2023-06-22T07:30:25;27.20;63.50
44063;DHT22;29727;47.606;19.130;2023-06-22T07:32:50;27.30;66.00
44063;DHT22;29727;47.606;19.130;2023-06-22T07:35:16;27.40;65.80
44063;DHT22;29727;47.606;19.130;2023-06-22T07:37:42;27.40;63.90
44063;DHT22;29727;47.606;19.130;2023-06-22T07:40:08;27.50;64.30
44063;DHT22;29727;47.606;19.130;2023-06-22T07:42:34;27.60;64.20
44063;DHT22;29727;47.606;19.130;2023-06-22T07:45:01;27.70;63.40
44063;DHT22;29727;47.606;19.130;2023-06-22T07:47:28;27.80;62.60
44063;DHT22;29727;47.606;19.130;2023-06-22T07:49:54;27.90;61.60
44063;DHT22;29727;47.606;19.130;2023-06-22T07:52:21;28.00;61.30
44063;DHT22;29727;47.606;19.130;2023-06-22T07:54:47;28.10;61.80
44063;DHT22;29727;47.606;19.130;2023-06-22T07:57:13;28.20;62.50
44063;DHT22;29727;47.606;19.130;2023-06-22T07:59:38;28.30;59.40
44063;DHT22;29727;47.606;19.130;2023-06-22T08:02:05;28.30;60.10
44063;DHT22;29727;47.606;19.130;2023-06-22T08:04:30;28.30;61.40
44063;DHT22;29727;47.606;19.130;2023-06-22T08:07:00;28.30;61.10
44063;DHT22;29727;47.606;19.130;2023-06-22T08:09:28;28.40;60.70
44063;DHT22;29727;47.606;19.130;2023-06-22T08:11:54;28.50;60.00
44063;DHT22;29727;47.606;19.130;2023-06-22T08:14:22;28.50;59.10
44063;DHT22;29727;47.606;19.130;2023-06-22T08:16:48;28.50;60.20
44063;DHT22;29727;47.606;19.130;2023-06-22T08:19:16;28.60;60.80
44063;DHT22;29727;47.606;19.130;2023-06-22T08:21:42;28.60;58.50
44063;DHT22;29727;47.606;19.130;2023-06-22T08:24:08;28.70;58.60
44063;DHT22;29727;47.606;19.130;2023-06-22T08:26:33;28.70;57.30
44063;DHT22;29727;47.606;19.130;2023-06-22T08:29:03;28.80;57.60
44063;DHT22;29727;47.606;19.130;2023-06-22T08:31:28;28.90;57.00
44063;DHT22;29727;47.606;19.130;2023-06-22T08:33:54;29.00;56.40
44063;DHT22;29727;47.606;19.130;2023-06-22T08:36:20;29.00;55.40
44063;DHT22;29727;47.606;19.130;2023-06-22T08:38:45;29.20;57.60
44063;DHT22;29727;47.606;19.130;2023-06-22T08:41:15;29.20;56.90
44063;DHT22;29727;47.606;19.130;2023-06-22T08:43:41;29.40;57.20
44063;DHT22;29727;47.606;19.130;2023-06-22T08:46:08;29.50;57.30
44063;DHT22;29727;47.606;19.130;2023-06-22T08:48:34;29.60;55.80
44063;DHT22;29727;47.606;19.130;2023-06-22T08:50:59;29.70;55.40
44063;DHT22;29727;47.606;19.130;2023-06-22T08:53:25;29.80;55.80
44063;DHT22;29727;47.606;19.130;2023-06-22T08:55:51;29.90;55.40
44063;DHT22;29727;47.606;19.130;2023-06-22T08:58:16;30.00;56.20
44063;DHT22;29727;47.606;19.130;2023-06-22T09:00:43;30.10;54.80
44063;DHT22;29727;47.606;19.130;2023-06-22T09:03:09;30.20;54.10
44063;DHT22;29727;47.606;19.130;2023-06-22T09:05:36;30.30;55.20
44063;DHT22;29727;47.606;19.130;2023-06-22T09:08:02;30.40;53.50
44063;DHT22;29727;47.606;19.130;2023-06-22T09:10:28;30.60;52.40
44063;DHT22;29727;47.606;19.130;2023-06-22T09:12:53;30.70;52.50
44063;DHT22;29727;47.606;19.130;2023-06-22T09:15:19;30.70;51.30
44063;DHT22;29727;47.606;19.130;2023-06-22T09:17:45;30.80;53.30
44063;DHT22;29727;47.606;19.130;2023-06-22T09:20:12;30.90;52.10
44063;DHT22;29727;47.606;19.130;2023-06-22T09:22:37;30.90;53.20
44063;DHT22;29727;47.606;19.130;2023-06-22T09:25:04;31.00;51.60
44063;DHT22;29727;47.606;19.130;2023-06-22T09:27:30;31.00;52.80
44063;DHT22;29727;47.606;19.130;2023-06-22T09:29:55;31.10;52.70
44063;DHT22;29727;47.606;19.130;2023-06-22T09:32:24;31.10;52.90
44063;DHT22;29727;47.606;19.130;2023-06-22T09:34:50;31.20;51.70
44063;DHT22;29727;47.606;19.130;2023-06-22T09:37:16;31.20;51.10
44063;DHT22;29727;47.606;19.130;2023-06-22T09:39:41;31.30;51.60
44063;DHT22;29727;47.606;19.130;2023-06-22T09:42:07;31.30;52.50
44063;DHT22;29727;47.606;19.130;2023-06-22T09:44:33;31.30;53.00
44063;DHT22;29727;47.606;19.130;2023-06-22T09:46:59;31.30;53.40
44063;DHT22;29727;47.606;19.130;2023-06-22T09:49:25;31.40;53.10
44063;DHT22;29727;47.606;19.130;2023-06-22T09:51:51;31.50;52.40
44063;DHT22;29727;47.606;19.130;2023-06-22T09:54:17;31.50;51.90
44063;DHT22;29727;47.606;19.130;2023-06-22T09:56:43;31.60;54.40
44063;DHT22;29727;47.606;19.130;2023-06-22T09:59:09;31.60;50.50
44063;DHT22;29727;47.606;19.130;2023-06-22T10:01:35;31.70;50.20
44063;DHT22;29727;47.606;19.130;2023-06-22T10:37:10;33.10;50.10
44063;DHT22;29727;47.606;19.130;2023-06-22T10:39:35;33.20;49.50
44063;DHT22;29727;47.606;19.130;2023-06-22T10:42:01;33.30;49.50
44063;DHT22;29727;47.606;19.130;2023-06-22T10:44:27;33.40;50.30
44063;DHT22;29727;47.606;19.130;2023-06-22T10:46:52;33.50;48.60
44063;DHT22;29727;47.606;19.130;2023-06-22T10:49:18;33.60;47.80
44063;DHT22;29727;47.606;19.130;2023-06-22T10:51:43;33.60;49.10
44063;DHT22;29727;47.606;19.130;2023-06-22T10:54:09;33.60;48.90
44063;DHT22;29727;47.606;19.130;2023-06-22T10:56:35;33.60;49.40
44063;DHT22;29727;47.606;19.130;2023-06-22T10:59:00;33.70;47.90
44063;DHT22;29727;47.606;19.130;2023-06-22T11:01:27;33.70;51.30
44063;DHT22;29727;47.606;19.130;2023-06-22T11:03:53;33.70;47.90
44063;DHT22;29727;47.606;19.130;2023-06-22T11:06:19;33.80;48.20
44063;DHT22;29727;47.606;19.130;2023-06-22T11:08:44;33.80;48.40
44063;DHT22;29727;47.606;19.130;2023-06-22T11:11:10;33.90;47.20
44063;DHT22;29727;47.606;19.130;2023-06-22T11:13:36;34.10;47.80
44063;DHT22;29727;47.606;19.130;2023-06-22T11:16:02;34.10;48.00
44063;DHT22;29727;47.606;19.130;2023-06-22T11:18:27;34.20;47.80
44063;DHT22;29727;47.606;19.130;2023-06-22T11:20:53;34.20;48.10
44063;DHT22;29727;47.606;19.130;2023-06-22T11:23:19;34.10;47.60
44063;DHT22;29727;47.606;19.130;2023-06-22T11:25:44;34.10;48.30
44063;DHT22;29727;47.606;19.130;2023-06-22T11:28:11;34.10;47.50
44063;DHT22;29727;47.606;19.130;2023-06-22T11:30:37;34.20;50.50
44063;DHT22;29727;47.606;19.130;2023-06-22T11:33:03;34.20;48.60
44063;DHT22;29727;47.606;19.130;2023-06-22T11:35:28;34.40;48.20
44063;DHT22;29727;47.606;19.130;2023-06-22T11:37:54;34.50;47.50
44063;DHT22;29727;47.606;19.130;2023-06-22T12:38:27;34.60;47.20
44063;DHT22;29727;47.606;19.130;2023-06-22T12:40:52;34.60;46.90
44063;DHT22;29727;47.606;19.130;2023-06-22T12:43:18;34.70;49.50
44063;DHT22;29727;47.606;19.130;2023-06-22T12:45:44;34.70;51.30
44063;DHT22;29727;47.606;19.130;2023-06-22T12:48:09;34.90;49.00
44063;DHT22;29727;47.606;19.130;2023-06-22T12:50:35;35.10;49.30
44063;DHT22;29727;47.606;19.130;2023-06-22T12:53:01;35.30;48.70
44063;DHT22;29727;47.606;19.130;2023-06-22T12:55:28;35.50;49.10
44063;DHT22;29727;47.606;19.130;2023-06-22T12:57:54;35.70;48.00
44063;DHT22;29727;47.606;19.130;2023-06-22T13:00:20;35.80;45.30
44063;DHT22;29727;47.606;19.130;2023-06-22T13:02:45;36.00;45.80
44063;DHT22;29727;47.606;19.130;2023-06-22T13:05:11;36.20;47.10
44063;DHT22;29727;47.606;19.130;2023-06-22T13:07:37;36.30;46.50
44063;DHT22;29727;47.606;19.130;2023-06-22T13:10:03;36.40;46.60
44063;DHT22;29727;47.606;19.130;2023-06-22T13:12:28;36.40;45.80
44063;DHT22;29727;47.606;19.130;2023-06-22T13:14:54;36.40;47.60
44063;DHT22;29727;47.606;19.130;2023-06-22T13:17:20;36.50;44.90
44063;DHT22;29727;47.606;19.130;2023-06-22T13:19:46;36.50;45.40
44063;DHT22;29727;47.606;19.130;2023-06-22T13:22:30;36.50;46.10
44063;DHT22;29727;47.606;19.130;2023-06-22T13:24:56;36.60;44.80
44063;DHT22;29727;47.606;19.130;2023-06-22T13:27:22;36.60;43.50
44063;DHT22;29727;47.606;19.130;2023-06-22T13:29:48;36.60;45.90
44063;DHT22;29727;47.606;19.130;2023-06-22T13:32:14;36.60;44.80
44063;DHT22;29727;47.606;19.130;2023-06-22T13:34:40;36.60;44.80
44063;DHT22;29727;47.606;19.130;2023-06-22T13:37:05;36.60;46.40
44063;DHT22;29727;47.606;19.130;2023-06-22T13:39:31;36.70;44.20
44063;DHT22;29727;47.606;19.130;2023-06-22T13:41:58;36.70;45.30
44063;DHT22;29727;47.606;19.130;2023-06-22T13:44:23;36.70;44.40
44063;DHT22;29727;47.606;19.130;2023-06-22T13:46:53;36.70;46.30
44063;DHT22;29727;47.606;19.130;2023-06-22T13:49:18;36.70;45.30
44063;DHT22;29727;47.606;19.130;2023-06-22T13:51:44;36.70;44.40
44063;DHT22;29727;47.606;19.130;2023-06-22T13:54:10;36.70;44.00
44063;DHT22;29727;47.606;19.130;2023-06-22T13:56:35;36.60;44.90
44063;DHT22;29727;47.606;19.130;2023-06-22T13:59:01;36.60;43.40
44063;DHT22;29727;47.606;19.130;2023-06-22T14:01:26;36.60;43.90
44063;DHT22;29727;47.606;19.130;2023-06-22T14:03:52;36.50;45.00
44063;DHT22;29727;47.606;19.130;2023-06-22T14:06:18;36.50;47.00
44063;DHT22;29727;47.606;19.130;2023-06-22T14:08:43;36.40;46.00
44063;DHT22;29727;47.606;19.130;2023-06-22T14:11:10;36.40;44.40
44063;DHT22;29727;47.606;19.130;2023-06-22T14:13:35;36.40;45.90
44063;DHT22;29727;47.606;19.130;2023-06-22T14:16:01;36.30;44.10
44063;DHT22;29727;47.606;19.130;2023-06-22T14:18:27;36.30;45.10
44063;DHT22;29727;47.606;19.130;2023-06-22T14:20:52;36.20;44.90
44063;DHT22;29727;47.606;19.130;2023-06-22T14:23:18;36.20;46.40
44063;DHT22;29727;47.606;19.130;2023-06-22T14:25:44;36.20;46.80
44063;DHT22;29727;47.606;19.130;2023-06-22T14:28:09;36.10;46.90
44063;DHT22;29727;47.606;19.130;2023-06-22T14:30:35;36.10;46.50
44063;DHT22;29727;47.606;19.130;2023-06-22T14:33:01;36.10;46.10
44063;DHT22;29727;47.606;19.130;2023-06-22T14:35:26;36.00;45.80
44063;DHT22;29727;47.606;19.130;2023-06-22T14:37:52;36.00;44.20
44063;DHT22;29727;47.606;19.130;2023-06-22T14:40:17;36.00;45.30
44063;DHT22;29727;47.606;19.130;2023-06-22T14:42:43;35.90;44.20
44063;DHT22;29727;47.606;19.130;2023-06-22T14:45:09;35.90;44.10
44063;DHT22;29727;47.606;19.130;2023-06-22T14:47:34;35.90;45.00
44063;DHT22;29727;47.606;19.130;2023-06-22T14:50:00;35.90;44.90
44063;DHT22;29727;47.606;19.130;2023-06-22T14:52:26;35.90;44.70
44063;DHT22;29727;47.606;19.130;2023-06-22T14:54:52;35.90;44.50
44063;DHT22;29727;47.606;19.130;2023-06-22T14:57:18;35.90;44.20
44063;DHT22;29727;47.606;19.130;2023-06-22T14:59:46;35.90;45.50
44063;DHT22;29727;47.606;19.130;2023-06-22T15:02:13;35.80;45.30
44063;DHT22;29727;47.606;19.130;2023-06-22T15:04:38;35.80;46.80
44063;DHT22;29727;47.606;19.130;2023-06-22T15:07:04;35.80;46.30
44063;DHT22;29727;47.606;19.130;2023-06-22T15:09:30;35.80;44.10
44063;DHT22;29727;47.606;19.130;2023-06-22T15:11:57;35.80;44.60
44063;DHT22;29727;47.606;19.130;2023-06-22T15:14:23;35.80;45.10
44063;DHT22;29727;47.606;19.130;2023-06-22T15:16:50;35.80;45.50
44063;DHT22;29727;47.606;19.130;2023-06-22T15:19:15;35.80;46.20
44063;DHT22;29727;47.606;19.130;2023-06-22T15:21:41;35.80;46.10
44063;DHT22;29727;47.606;19.130;2023-06-22T15:24:07;35.80;44.10
44063;DHT22;29727;47.606;19.130;2023-06-22T15:26:32;35.80;45.30
44063;DHT22;29727;47.606;19.130;2023-06-22T15:28:58;35.70;46.70
44063;DHT22;29727;47.606;19.130;2023-06-22T15:31:24;35.70;46.90
44063;DHT22;29727;47.606;19.130;2023-06-22T15:33:49;35.60;46.50
44063;DHT22;29727;47.606;19.130;2023-06-22T15:36:15;35.50;46.80
44063;DHT22;29727;47.606;19.130;2023-06-22T15:38:41;35.50;46.50
44063;DHT22;29727;47.606;19.130;2023-06-22T15:41:06;35.50;47.20
44063;DHT22;29727;47.606;19.130;2023-06-22T15:43:32;35.40;47.50
44063;DHT22;29727;47.606;19.130;2023-06-22T15:45:57;35.40;46.10
44063;DHT22;29727;47.606;19.130;2023-06-22T15:48:23;35.40;46.60
44063;DHT22;29727;47.606;19.130;2023-06-22T15:50:49;35.40;47.60
44063;DHT22;29727;47.606;19.130;2023-06-22T15:53:15;35.30;47.50
44063;DHT22;29727;47.606;19.130;2023-06-22T15:55:40;35.30;47.30
44063;DHT22;29727;47.606;19.130;2023-06-22T15:58:07;35.20;47.10
44063;DHT22;29727;47.606;19.130;2023-06-22T16:00:34;35.20;47.50
44063;DHT22;29727;47.606;19.130;2023-06-22T16:03:00;35.20;47.50
44063;DHT22;29727;47.606;19.130;2023-06-22T16:05:25;35.10;46.20
44063;DHT22;29727;47.606;19.130;2023-06-22T16:07:54;35.10;46.70
44063;DHT22;29727;47.606;19.130;2023-06-22T16:10:20;35.10;47.60
44063;DHT22;29727;47.606;19.130;2023-06-22T16:12:46;35.10;48.50
44063;DHT22;29727;47.606;19.130;2023-06-22T16:15:12;35.10;47.80
44063;DHT22;29727;47.606;19.130;2023-06-22T16:17:38;35.10;49.40
44063;DHT22;29727;47.606;19.130;2023-06-22T16:20:05;35.00;48.80
44063;DHT22;29727;47.606;19.130;2023-06-22T16:22:32;35.00;48.40
44063;DHT22;29727;47.606;19.130;2023-06-22T16:24:57;35.00;49.60
44063;DHT22;29727;47.606;19.130;2023-06-22T16:27:23;35.00;49.50
44063;DHT22;29727;47.606;19.130;2023-06-22T16:29:50;34.90;49.30
44063;DHT22;29727;47.606;19.130;2023-06-22T16:32:16;34.90;48.90
44063;DHT22;29727;47.606;19.130;2023-06-22T16:34:43;34.80;49.30
44063;DHT22;29727;47.606;19.130;2023-06-22T16:37:11;34.80;49.90
44063;DHT22;29727;47.606;19.130;2023-06-22T16:39:37;34.70;48.50
44063;DHT22;29727;47.606;19.130;2023-06-22T16:42:03;34.70;48.50
44063;DHT22;29727;47.606;19.130;2023-06-22T16:44:29;34.70;50.10
44063;DHT22;29727;47.606;19.130;2023-06-22T16:46:54;34.60;48.50
44063;DHT22;29727;47.606;19.130;2023-06-22T16:49:20;34.60;48.90
44063;DHT22;29727;47.606;19.130;2023-06-22T16:51:46;34.60;49.50
44063;DHT22;29727;47.606;19.130;2023-06-22T16:54:12;34.50;49.90
44063;DHT22;29727;47.606;19.130;2023-06-22T16:56:38;34.50;50.70
44063;DHT22;29727;47.606;19.130;2023-06-22T16:59:04;34.50;50.50
44063;DHT22;29727;47.606;19.130;2023-06-22T17:01:32;34.50;51.00
44063;DHT22;29727;47.606;19.130;2023-06-22T17:04:04;34.40;51.00
44063;DHT22;29727;47.606;19.130;2023-06-22T17:06:30;34.40;50.20
44063;DHT22;29727;47.606;19.130;2023-06-22T17:08:59;34.30;50.10
44063;DHT22;29727;47.606;19.130;2023-06-22T17:11:27;34.30;50.40
44063;DHT22;29727;47.606;19.130;2023-06-22T17:13:54;34.20;50.70
44063;DHT22;29727;47.606;19.130;2023-06-22T17:16:19;34.20;51.40
44063;DHT22;29727;47.606;19.130;2023-06-22T17:18:46;34.20;51.00
44063;DHT22;29727;47.606;19.130;2023-06-22T17:21:13;34.20;51.20